Time;durP1;ratioP1;P1;durP2;ratioP2;P2;SDS_P1;SDS_P2;PMS_P1;PMS_P2;Temp;Humidity;BMP_temperature;BMP_pressure;BME280_temperature;BME280_humidity;BME280_pressure;Samples;Min_cycle;Max_cycle;Signal;HPM_P1;HPM_P2
2023/01/06 00:02:09;;;;;;;3.20;2.40;;;;;;;;;;4971398;28;20471;-46
2023/01/06 00:04:35;;;;;;;2.60;2.33;;;;;;;;;;4971321;28;20062;-47
2023/01/06 00:07:01;;;;;;;2.03;1.83;;;;;;;;;;4970693;28;20026;-45
2023/01/06 00:09:27;;;;;;;2.85;2.42;;;;;;;;;;4971327;28;20030;-46
2023/01/06 00:11:53;;;;;;;2.33;2.13;;;;;;;;;;4970917;28;20410;-46
2023/01/06 00:14:19;;;;;;;2.03;1.83;;;;;;;;;;4971313;28;20039;-46
2023/01/06 00:16:45;;;;;;;2.97;2.55;;;;;;;;;;4969725;28;20050;-45
2023/01/06 00:19:12;;;;;;;3.03;2.10;;;;;;;;;;4968802;28;20023;-46
2023/01/06 00:21:41;;;;;;;2.67;2.15;;;;;;;;;;4971238;28;20540;-49
2023/01/06 00:24:07;;;;;;;2.95;2.38;;;;;;;;;;4970783;28;20410;-48
2023/01/06 00:26:33;;;;;;;3.20;2.63;;;;;;;;;;4971498;28;20031;-45
2023/01/06 00:29:00;;;;;;;2.28;2.08;;;;;;;;;;4971138;28;20694;-47
2023/01/06 00:31:26;;;;;;;2.75;2.40;;;;;;;;;;4971095;28;20027;-46
2023/01/06 00:33:52;;;;;;;2.58;2.10;;;;;;;;;;4969590;28;20139;-45
2023/01/06 00:36:20;;;;;;;4.72;2.55;;;;;;;;;;4953783;28;20689;-46
2023/01/06 00:38:48;;;;;;;2.53;2.30;;;;;;;;;;4970464;28;20054;-45
2023/01/06 00:44:00;;;;;;;2.83;2.13;;;;;;;;;;4970984;28;20041;-47
2023/01/06 00:46:27;;;;;;;2.78;2.00;;;;;;;;;;4969421;28;20450;-46
2023/01/06 00:48:54;;;;;;;2.47;2.15;;;;;;;;;;4970204;28;20023;-46
2023/01/06 00:51:20;;;;;;;3.33;2.58;;;;;;;;;;4969460;28;20035;-46
2023/01/06 00:53:46;;;;;;;2.83;2.28;;;;;;;;;;4969309;28;20031;-47
2023/01/06 00:56:12;;;;;;;2.28;1.95;;;;;;;;;;4970397;28;20046;-45
2023/01/06 00:58:38;;;;;;;2.80;2.22;;;;;;;;;;4971288;28;20034;-47
2023/01/06 01:01:05;;;;;;;2.30;2.00;;;;;;;;;;4971262;28;20023;-46
2023/01/06 01:03:32;;;;;;;2.60;2.25;;;;;;;;;;4971498;28;20050;-46
2023/01/06 06:15:34;;;;;;;3.58;2.38;;;;;;;;;;4960472;28;20085;-46
2023/01/06 06:18:01;;;;;;;2.95;1.98;;;;;;;;;;4970110;28;20035;-48
2023/01/06 06:20:27;;;;;;;2.70;1.85;;;;;;;;;;4968938;28;20106;-44
2023/01/06 06:22:54;;;;;;;1.98;1.50;;;;;;;;;;4969652;28;20102;-46
2023/01/06 06:25:20;;;;;;;1.65;1.48;;;;;;;;;;4968687;28;20051;-47
2023/01/06 06:27:46;;;;;;;1.65;1.40;;;;;;;;;;4968742;28;20568;-44
2023/01/06 06:30:15;;;;;;;1.45;1.35;;;;;;;;;;4969853;28;20035;-46
2023/01/06 06:32:41;;;;;;;1.05;0.95;;;;;;;;;;4970035;28;20589;-47
2023/01/06 06:35:07;;;;;;;1.13;1.02;;;;;;;;;;4972639;28;20062;-44
2023/01/06 06:37:33;;;;;;;1.15;1.00;;;;;;;;;;4967684;28;20042;-45
2023/01/06 06:39:59;;;;;;;2.03;1.38;;;;;;;;;;4964648;28;20138;-47
2023/01/06 06:42:25;;;;;;;2.17;1.58;;;;;;;;;;4968528;28;20035;-44
2023/01/06 06:44:51;;;;;;;1.92;1.40;;;;;;;;;;4969191;28;20074;-47
2023/01/06 06:47:17;;;;;;;2.70;1.75;;;;;;;;;;4969394;28;20035;-47
2023/01/06 06:49:43;;;;;;;1.45;1.25;;;;;;;;;;4969817;28;20041;-45
2023/01/06 06:52:09;;;;;;;1.90;1.40;;;;;;;;;;4969587;28;20410;-45
2023/01/06 06:54:36;;;;;;;1.42;1.33;;;;;;;;;;4969482;28;20031;-47
2023/01/06 06:57:02;;;;;;;1.67;1.30;;;;;;;;;;4966033;28;20027;-44
2023/01/06 06:59:28;;;;;;;1.35;1.10;;;;;;;;;;4968934;28;20026;-44
2023/01/06 07:01:54;;;;;;;1.25;1.15;;;;;;;;;;4969505;28;20045;-43
2023/01/06 07:04:20;;;;;;;1.77;1.00;;;;;;;;;;4969618;28;20054;-45
2023/01/06 07:06:46;;;;;;;1.33;1.23;;;;;;;;;;4969613;28;20042;-45
2023/01/06 07:09:12;;;;;;;2.35;1.30;;;;;;;;;;4969462;28;20023;-45
2023/01/06 07:11:38;;;;;;;1.95;1.42;;;;;;;;;;4968954;28;20035;-46
2023/01/06 07:14:04;;;;;;;2.05;1.50;;;;;;;;;;4963902;28;20062;-45
2023/01/06 07:16:30;;;;;;;1.55;1.30;;;;;;;;;;4969235;28;20042;-45
2023/01/06 07:18:56;;;;;;;1.50;1.40;;;;;;;;;;4969060;28;20031;-46
2023/01/06 07:21:22;;;;;;;1.50;1.40;;;;;;;;;;4968845;28;20582;-47
2023/01/06 07:23:48;;;;;;;1.83;1.58;;;;;;;;;;4969041;28;20031;-46
2023/01/06 07:26:15;;;;;;;1.83;1.70;;;;;;;;;;4968044;28;20030;-47
2023/01/06 07:28:41;;;;;;;2.17;1.88;;;;;;;;;;4968477;28;20031;-48
2023/01/06 07:31:07;;;;;;;2.00;1.80;;;;;;;;;;4979550;28;20113;-44
2023/01/06 07:33:33;;;;;;;1.75;1.50;;;;;;;;;;4967081;28;20194;-43
2023/01/06 07:35:59;;;;;;;1.63;1.52;;;;;;;;;;4967615;28;20515;-46
2023/01/06 07:38:26;;;;;;;1.95;1.73;;;;;;;;;;4977197;28;20070;-43
2023/01/06 07:40:58;;;;;;;2.40;1.90;;;;;;;;;;4960971;28;20509;-44
2023/01/06 07:43:23;;;;;;;2.13;1.90;;;;;;;;;;4977916;28;20027;-47
2023/01/06 07:45:49;;;;;;;3.28;1.63;;;;;;;;;;4987158;28;20428;-49
2023/01/06 07:48:16;;;;;;;1.88;1.67;;;;;;;;;;4970165;28;20019;-49
2023/01/06 07:50:42;;;;;;;2.50;2.10;;;;;;;;;;4970566;28;20038;-49
2023/01/06 07:53:08;;;;;;;1.75;1.60;;;;;;;;;;4970979;28;20097;-50
2023/01/06 07:55:34;;;;;;;2.15;1.90;;;;;;;;;;4976537;28;20105;-48
2023/01/06 07:58:03;;;;;;;2.03;1.80;;;;;;;;;;4990632;28;20113;-50
2023/01/06 08:00:29;;;;;;;2.17;1.80;;;;;;;;;;4973379;28;20489;-49
2023/01/06 08:02:56;;;;;;;2.63;2.10;;;;;;;;;;4970811;28;20070;-50
2023/01/06 08:05:22;;;;;;;2.47;1.98;;;;;;;;;;4971034;28;20023;-47
2023/01/06 08:07:48;;;;;;;1.70;1.60;;;;;;;;;;4972184;28;20034;-50
2023/01/06 08:10:14;;;;;;;2.63;1.90;;;;;;;;;;4972183;28;20047;-48
2023/01/06 08:12:40;;;;;;;1.98;1.77;;;;;;;;;;4971401;28;20023;-49
2023/01/06 08:15:07;;;;;;;1.85;1.63;;;;;;;;;;4986882;28;20434;-50
2023/01/06 08:17:33;;;;;;;1.63;1.52;;;;;;;;;;4990382;28;20497;-47
2023/01/06 08:19:59;;;;;;;1.80;1.60;;;;;;;;;;4972247;28;20027;-49
2023/01/06 08:22:25;;;;;;;2.17;1.88;;;;;;;;;;4964537;28;20034;-49
2023/01/06 08:24:51;;;;;;;2.63;2.05;;;;;;;;;;4963707;28;20553;-50
2023/01/06 08:27:19;;;;;;;2.22;1.80;;;;;;;;;;4971274;28;20027;-49
2023/01/06 08:29:45;;;;;;;2.58;1.90;;;;;;;;;;4977797;28;20034;-48
2023/01/06 08:32:11;;;;;;;2.38;1.70;;;;;;;;;;4991424;28;20545;-47
2023/01/06 08:34:37;;;;;;;3.40;2.00;;;;;;;;;;4969442;28;20647;-48
2023/01/06 08:37:03;;;;;;;2.13;1.85;;;;;;;;;;4991499;28;20059;-50
2023/01/06 08:39:29;;;;;;;2.17;1.65;;;;;;;;;;4973003;28;20118;-48
2023/01/06 08:41:55;;;;;;;2.35;1.83;;;;;;;;;;4970429;28;20114;-48
2023/01/06 08:44:21;;;;;;;2.67;1.95;;;;;;;;;;4970144;28;20038;-47
2023/01/06 08:46:47;;;;;;;2.90;2.15;;;;;;;;;;4966583;28;20097;-48
2023/01/06 08:49:13;;;;;;;4.15;2.55;;;;;;;;;;4988015;28;20034;-47
2023/01/06 08:51:40;;;;;;;3.17;2.38;;;;;;;;;;4974880;28;20022;-46
2023/01/06 08:54:06;;;;;;;3.42;2.38;;;;;;;;;;4971590;28;20031;-45
2023/01/06 08:56:32;;;;;;;3.80;2.35;;;;;;;;;;4970258;28;20450;-46
2023/01/06 08:58:59;;;;;;;3.05;2.30;;;;;;;;;;4969595;28;20382;-47
2023/01/06 09:01:27;;;;;;;3.35;2.30;;;;;;;;;;4969553;28;20031;-45
2023/01/06 09:03:53;;;;;;;3.38;2.35;;;;;;;;;;4969586;28;20035;-45
2023/01/06 09:06:20;;;;;;;2.38;2.08;;;;;;;;;;4967900;28;20034;-45
2023/01/06 09:08:47;;;;;;;2.78;2.17;;;;;;;;;;4969397;28;20022;-47
2023/01/06 09:11:13;;;;;;;2.58;2.10;;;;;;;;;;4967762;28;20027;-46
2023/01/06 09:13:40;;;;;;;3.35;2.47;;;;;;;;;;4969388;28;20177;-46
2023/01/06 09:16:09;;;;;;;6.80;4.25;;;;;;;;;;4972400;28;20061;-44
2023/01/06 09:18:36;;;;;;;8.15;4.57;;;;;;;;;;4979392;28;20042;-43
2023/01/06 09:21:02;;;;;;;4.80;3.47;;;;;;;;;;4965427;28;20027;-45
2023/01/06 09:23:28;;;;;;;5.68;3.45;;;;;;;;;;4970138;28;20026;-45
2023/01/06 09:25:55;;;;;;;5.50;3.63;;;;;;;;;;4970601;28;20038;-45
2023/01/06 09:28:21;;;;;;;5.97;3.95;;;;;;;;;;4969336;28;20030;-45
2023/01/06 09:30:47;;;;;;;4.50;3.40;;;;;;;;;;4969300;28;20113;-45
2023/01/06 09:33:14;;;;;;;5.00;3.47;;;;;;;;;;4967558;28;20035;-45
2023/01/06 09:35:40;;;;;;;4.97;3.00;;;;;;;;;;4969496;28;20438;-45
2023/01/06 09:38:06;;;;;;;4.45;3.00;;;;;;;;;;4968848;28;20517;-45
2023/01/06 09:40:39;;;;;;;3.85;2.90;;;;;;;;;;4965491;28;20035;-45
2023/01/06 09:43:17;;;;;;;2.92;2.58;;;;;;;;;;4968393;28;20089;-46
2023/01/06 09:45:46;;;;;;;2.65;2.33;;;;;;;;;;4965694;28;20031;-45
2023/01/06 09:48:15;;;;;;;3.10;2.63;;;;;;;;;;4968649;28;20026;-45
2023/01/06 09:50:46;;;;;;;2.72;2.15;;;;;;;;;;4968566;28;20030;-45
2023/01/06 09:53:24;;;;;;;4.32;2.42;;;;;;;;;;4967353;28;20049;-45
2023/01/06 09:55:56;;;;;;;2.30;1.80;;;;;;;;;;4966421;28;20027;-44
2023/01/06 09:58:25;;;;;;;1.98;1.52;;;;;;;;;;4969066;28;20037;-45
2023/01/06 10:00:52;;;;;;;2.45;1.83;;;;;;;;;;4968839;28;20506;-45
2023/01/06 10:03:20;;;;;;;1.88;1.63;;;;;;;;;;4963861;28;20031;-46
2023/01/06 10:05:58;;;;;;;1.95;1.75;;;;;;;;;;4968515;28;20061;-47
2023/01/06 10:08:43;;;;;;;1.75;1.50;;;;;;;;;;4968352;28;20284;-46
2023/01/06 10:11:17;;;;;;;1.65;1.25;;;;;;;;;;4959334;28;20033;-46
2023/01/06 10:13:43;;;;;;;1.92;1.70;;;;;;;;;;4967657;28;20027;-45
2023/01/06 10:16:16;;;;;;;1.60;1.50;;;;;;;;;;4967856;28;20039;-46
2023/01/06 10:18:57;;;;;;;1.48;1.35;;;;;;;;;;4967744;28;20066;-46
2023/01/06 10:21:23;;;;;;;1.48;1.38;;;;;;;;;;4968086;28;20027;-46
2023/01/06 10:24:00;;;;;;;1.65;1.55;;;;;;;;;;4968232;28;20041;-46
2023/01/06 10:26:26;;;;;;;2.63;1.50;;;;;;;;;;4969372;28;20027;-45
2023/01/06 10:28:54;;;;;;;1.25;1.02;;;;;;;;;;4968314;28;20034;-45
2023/01/06 10:31:23;;;;;;;1.38;1.27;;;;;;;;;;4967969;28;20073;-45
2023/01/06 10:33:53;;;;;;;1.30;1.20;;;;;;;;;;4969195;28;20037;-46
2023/01/06 10:36:22;;;;;;;2.25;1.60;;;;;;;;;;4986258;28;20449;-45
2023/01/06 10:38:52;;;;;;;1.15;1.02;;;;;;;;;;4972936;28;20038;-45
2023/01/06 10:41:21;;;;;;;1.65;1.13;;;;;;;;;;4968546;28;20062;-47
2023/01/06 10:43:47;;;;;;;1.23;1.13;;;;;;;;;;4967447;28;20031;-47
2023/01/06 10:46:15;;;;;;;1.15;1.05;;;;;;;;;;4968323;28;20026;-45
2023/01/06 10:48:41;;;;;;;1.20;1.10;;;;;;;;;;4969059;28;20142;-46
2023/01/06 10:51:19;;;;;;;1.20;1.10;;;;;;;;;;4968965;28;20031;-46
2023/01/06 10:53:45;;;;;;;1.13;1.02;;;;;;;;;;4967687;28;20042;-46
2023/01/06 10:56:11;;;;;;;1.13;1.02;;;;;;;;;;4966943;28;20081;-46
2023/01/06 10:58:42;;;;;;;0.80;0.80;;;;;;;;;;4969207;28;20035;-46
2023/01/06 11:01:10;;;;;;;1.55;1.17;;;;;;;;;;4968808;28;20031;-45
2023/01/06 11:03:36;;;;;;;1.55;1.30;;;;;;;;;;4969193;28;20049;-46
2023/01/06 11:06:14;;;;;;;2.38;1.58;;;;;;;;;;4969184;28;20023;-42
2023/01/06 11:08:41;;;;;;;3.00;1.83;;;;;;;;;;4962305;28;20038;-44
2023/01/06 11:11:11;;;;;;;2.65;1.83;;;;;;;;;;4966429;28;20034;-45
2023/01/06 11:13:38;;;;;;;2.20;1.48;;;;;;;;;;4967403;28;20039;-46
2023/01/06 11:16:06;;;;;;;1.27;1.17;;;;;;;;;;4984511;28;20397;-46
2023/01/06 11:18:33;;;;;;;1.90;1.52;;;;;;;;;;4987057;28;20038;-44
2023/01/06 11:21:04;;;;;;;1.35;1.10;;;;;;;;;;4971367;28;20457;-43
2023/01/06 11:23:30;;;;;;;1.13;1.00;;;;;;;;;;4967794;28;20031;-46
2023/01/06 11:26:01;;;;;;;1.25;1.10;;;;;;;;;;4970729;28;20025;-43
2023/01/06 11:28:27;;;;;;;1.10;1.00;;;;;;;;;;4971266;28;20106;-43
2023/01/06 11:30:56;;;;;;;1.58;1.35;;;;;;;;;;4967575;28;20046;-43
2023/01/06 11:33:23;;;;;;;1.20;1.10;;;;;;;;;;4971140;28;20037;-46
2023/01/06 11:35:49;;;;;;;1.35;1.25;;;;;;;;;;4982422;28;20386;-44
2023/01/06 11:38:16;;;;;;;1.20;1.10;;;;;;;;;;4979976;28;20039;-44
2023/01/06 11:40:45;;;;;;;0.80;0.80;;;;;;;;;;4969982;28;20030;-43
2023/01/06 11:43:15;;;;;;;1.23;1.13;;;;;;;;;;4969970;28;20031;-45
2023/01/06 11:46:08;;;;;;;0.82;0.82;;;;;;;;;;4970538;28;20406;-43
2023/01/06 11:48:36;;;;;;;0.70;0.70;;;;;;;;;;4965799;28;20047;-45
2023/01/06 11:51:04;;;;;;;0.65;0.60;;;;;;;;;;4970690;28;20031;-43
2023/01/06 11:53:30;;;;;;;0.55;0.55;;;;;;;;;;4970462;28;20042;-44
2023/01/06 11:55:57;;;;;;;0.90;0.80;;;;;;;;;;4947480;28;20038;-43
2023/01/06 11:58:31;;;;;;;0.75;0.75;;;;;;;;;;4976768;28;20045;-44
2023/01/06 12:01:27;;;;;;;0.90;0.90;;;;;;;;;;4970061;28;20548;-44
2023/01/06 12:03:57;;;;;;;0.98;0.98;;;;;;;;;;4954142;28;20097;-43
2023/01/06 12:06:37;;;;;;;0.70;0.70;;;;;;;;;;4970606;28;20477;-45
2023/01/06 12:09:03;;;;;;;0.80;0.80;;;;;;;;;;4970205;28;20026;-44
2023/01/06 12:11:37;;;;;;;1.10;1.00;;;;;;;;;;4969696;28;20037;-45
2023/01/06 12:14:04;;;;;;;1.50;1.00;;;;;;;;;;4966847;28;20434;-43
2023/01/06 12:16:56;;;;;;;1.08;0.90;;;;;;;;;;4971743;28;20037;-43
2023/01/06 12:19:43;;;;;;;1.10;1.00;;;;;;;;;;4941591;28;20495;-44
2023/01/06 12:22:20;;;;;;;1.02;0.77;;;;;;;;;;4971039;28;20033;-44
2023/01/06 12:24:47;;;;;;;0.60;0.60;;;;;;;;;;4971105;28;20033;-45
2023/01/06 12:27:19;;;;;;;1.25;1.00;;;;;;;;;;4970725;28;20118;-46
2023/01/06 12:29:46;;;;;;;0.60;0.60;;;;;;;;;;4969842;28;20493;-46
2023/01/06 12:32:21;;;;;;;0.80;0.77;;;;;;;;;;4968292;28;20093;-44
2023/01/06 12:34:49;;;;;;;0.70;0.70;;;;;;;;;;4971986;28;20019;-46
2023/01/06 12:37:15;;;;;;;0.70;0.70;;;;;;;;;;4972164;28;20546;-44
2023/01/06 12:39:46;;;;;;;0.70;0.70;;;;;;;;;;4971798;28;20037;-46
2023/01/06 12:42:25;;;;;;;1.00;0.90;;;;;;;;;;4971772;28;20031;-46
2023/01/06 12:44:57;;;;;;;0.65;0.60;;;;;;;;;;4970256;28;20031;-44
2023/01/06 12:47:33;;;;;;;0.60;0.60;;;;;;;;;;4970417;28;20109;-44
2023/01/06 12:49:59;;;;;;;0.80;0.80;;;;;;;;;;4970621;28;20592;-44
2023/01/06 12:52:31;;;;;;;0.70;0.70;;;;;;;;;;4970185;28;20027;-43
2023/01/06 12:54:58;;;;;;;1.02;0.93;;;;;;;;;;4970126;28;20692;-47
2023/01/06 12:57:44;;;;;;;0.80;0.80;;;;;;;;;;4969940;28;20502;-44
2023/01/06 13:00:10;;;;;;;1.80;1.08;;;;;;;;;;4970098;28;20121;-43
2023/01/06 13:02:41;;;;;;;0.80;0.80;;;;;;;;;;4969918;28;20063;-45
2023/01/06 13:05:10;;;;;;;1.27;1.02;;;;;;;;;;4969912;28;20031;-43
2023/01/06 13:07:43;;;;;;;1.10;1.00;;;;;;;;;;4969840;28;20450;-43
2023/01/06 13:10:21;;;;;;;1.27;1.08;;;;;;;;;;4969517;28;20030;-46
2023/01/06 13:13:06;;;;;;;1.27;1.10;;;;;;;;;;4969549;28;20081;-43
2023/01/06 13:15:33;;;;;;;1.50;1.17;;;;;;;;;;4970091;28;20089;-47
2023/01/06 13:17:59;;;;;;;1.23;1.10;;;;;;;;;;4970033;28;20089;-45
2023/01/06 13:20:29;;;;;;;1.13;1.00;;;;;;;;;;4969591;28;20038;-44
2023/01/06 13:23:00;;;;;;;1.35;1.08;;;;;;;;;;4969484;28;20049;-44
2023/01/06 13:25:32;;;;;;;1.00;0.90;;;;;;;;;;4969333;28;20026;-44
2023/01/06 13:28:17;;;;;;;1.05;0.95;;;;;;;;;;4969686;28;20050;-43
2023/01/06 13:30:44;;;;;;;1.45;1.27;;;;;;;;;;4969595;28;20468;-44
2023/01/06 13:33:30;;;;;;;1.60;1.50;;;;;;;;;;4969358;28;20039;-44
2023/01/06 13:36:14;;;;;;;1.90;1.65;;;;;;;;;;4969136;28;20042;-44
2023/01/06 13:38:46;;;;;;;1.75;1.45;;;;;;;;;;4969158;28;20069;-44
2023/01/06 13:41:14;;;;;;;1.17;1.08;;;;;;;;;;4969032;28;20461;-46
2023/01/06 13:43:43;;;;;;;1.15;1.05;;;;;;;;;;4969170;28;20015;-48
2023/01/06 13:46:11;;;;;;;1.30;1.20;;;;;;;;;;4969077;28;20031;-44
2023/01/06 13:48:39;;;;;;;1.20;1.10;;;;;;;;;;4968793;28;20027;-44
2023/01/06 13:51:09;;;;;;;1.05;0.95;;;;;;;;;;4969087;28;20528;-46
2023/01/06 13:53:40;;;;;;;0.98;0.90;;;;;;;;;;4968659;28;20034;-46
2023/01/06 13:56:12;;;;;;;1.13;1.00;;;;;;;;;;4968798;28;20027;-45
2023/01/06 13:58:42;;;;;;;1.20;1.00;;;;;;;;;;4969152;28;20034;-45
2023/01/06 14:01:12;;;;;;;1.20;1.10;;;;;;;;;;4968747;28;20457;-45
2023/01/06 14:03:39;;;;;;;0.98;0.90;;;;;;;;;;4968793;28;20034;-46
2023/01/06 14:06:05;;;;;;;0.85;0.85;;;;;;;;;;4968841;28;20314;-44
2023/01/06 14:08:33;;;;;;;1.38;1.27;;;;;;;;;;4968871;28;20494;-44
2023/01/06 14:11:20;;;;;;;1.10;1.00;;;;;;;;;;4968698;28;20121;-46
2023/01/06 14:13:50;;;;;;;1.45;1.02;;;;;;;;;;4958638;28;20046;-44
2023/01/06 14:16:17;;;;;;;1.92;1.02;;;;;;;;;;4968706;28;20495;-45
2023/01/06 14:18:51;;;;;;;1.23;1.13;;;;;;;;;;4968672;28;20458;-47
2023/01/06 14:21:25;;;;;;;0.90;0.90;;;;;;;;;;4968668;28;20085;-46
2023/01/06 14:24:03;;;;;;;1.10;1.00;;;;;;;;;;4968328;28;20030;-45
2023/01/06 14:26:49;;;;;;;1.25;0.90;;;;;;;;;;4968706;28;20022;-45
2023/01/06 14:29:34;;;;;;;1.20;1.10;;;;;;;;;;4968451;28;20030;-44
2023/01/06 14:32:01;;;;;;;1.90;1.70;;;;;;;;;;4968556;28;20479;-45
2023/01/06 14:34:27;;;;;;;1.70;1.50;;;;;;;;;;4968503;28;20039;-44
2023/01/06 14:36:53;;;;;;;1.55;1.42;;;;;;;;;;4968452;28;20221;-44
2023/01/06 14:39:22;;;;;;;1.83;1.42;;;;;;;;;;4968110;28;20034;-44
2023/01/06 14:41:52;;;;;;;1.40;1.30;;;;;;;;;;4968582;28;20081;-45
2023/01/06 14:44:21;;;;;;;1.20;1.10;;;;;;;;;;4968367;28;20037;-43
2023/01/06 14:46:50;;;;;;;0.88;0.85;;;;;;;;;;4968055;28;20066;-45
2023/01/06 14:49:36;;;;;;;1.10;0.98;;;;;;;;;;4968430;28;20409;-45
2023/01/06 14:52:05;;;;;;;1.13;1.02;;;;;;;;;;4938354;28;20043;-44
2023/01/06 14:54:34;;;;;;;1.30;1.20;;;;;;;;;;4968126;28;20027;-44
2023/01/06 14:57:02;;;;;;;1.20;1.10;;;;;;;;;;4968424;28;20098;-46
2023/01/06 14:59:28;;;;;;;1.30;0.80;;;;;;;;;;4967365;28;20022;-46
2023/01/06 15:02:02;;;;;;;0.77;0.77;;;;;;;;;;4967872;28;20023;-43
2023/01/06 15:04:29;;;;;;;0.98;0.90;;;;;;;;;;4968183;28;20431;-45
2023/01/06 15:07:01;;;;;;;0.70;0.60;;;;;;;;;;4967976;28;20027;-43
2023/01/06 15:09:27;;;;;;;0.75;0.70;;;;;;;;;;4967983;28;20031;-45
2023/01/06 15:11:53;;;;;;;0.70;0.70;;;;;;;;;;4967944;28;20557;-48
2023/01/06 15:14:26;;;;;;;0.77;0.70;;;;;;;;;;4968117;28;20593;-46
2023/01/06 15:16:52;;;;;;;0.68;0.68;;;;;;;;;;4968106;28;20042;-44
2023/01/06 15:19:18;;;;;;;0.57;0.57;;;;;;;;;;4967937;28;20161;-46
2023/01/06 15:21:45;;;;;;;0.60;0.60;;;;;;;;;;4967809;28;20102;-44
2023/01/06 15:24:22;;;;;;;0.98;0.65;;;;;;;;;;4967606;28;20499;-44
2023/01/06 15:26:48;;;;;;;0.75;0.60;;;;;;;;;;4967894;28;20084;-45
2023/01/06 15:29:16;;;;;;;0.73;0.70;;;;;;;;;;4968043;28;20031;-46
2023/01/06 15:31:43;;;;;;;0.60;0.60;;;;;;;;;;4967721;28;20509;-44
2023/01/06 15:34:14;;;;;;;0.50;0.50;;;;;;;;;;4967763;28;20053;-46
2023/01/06 15:36:42;;;;;;;0.60;0.60;;;;;;;;;;4967713;28;20037;-45
2023/01/06 15:39:11;;;;;;;0.50;0.50;;;;;;;;;;4967533;28;20031;-47
2023/01/06 15:41:39;;;;;;;0.70;0.70;;;;;;;;;;4967643;28;20043;-47
2023/01/06 15:44:23;;;;;;;0.65;0.65;;;;;;;;;;4968050;28;20033;-45
2023/01/06 15:46:50;;;;;;;0.80;0.80;;;;;;;;;;4967921;28;20015;-50
2023/01/06 15:49:21;;;;;;;1.23;0.60;;;;;;;;;;4967718;28;20038;-47
2023/01/06 15:51:54;;;;;;;0.70;0.70;;;;;;;;;;4967448;28;20409;-47
2023/01/06 15:54:19;;;;;;;1.48;1.10;;;;;;;;;;4967514;28;20050;-47
2023/01/06 15:56:45;;;;;;;1.58;1.20;;;;;;;;;;4967601;28;20113;-46
2023/01/06 15:59:13;;;;;;;1.80;1.40;;;;;;;;;;4968013;28;20442;-47
2023/01/06 16:01:47;;;;;;;1.73;1.50;;;;;;;;;;4967550;28;20061;-49
2023/01/06 16:04:15;;;;;;;2.38;1.92;;;;;;;;;;4967439;28;20033;-46
2023/01/06 16:06:42;;;;;;;1.90;1.67;;;;;;;;;;4967710;28;20050;-48
2023/01/06 16:09:17;;;;;;;2.13;1.80;;;;;;;;;;4967399;28;20440;-47
2023/01/06 16:11:56;;;;;;;2.22;1.65;;;;;;;;;;4970185;28;20027;-46
2023/01/06 16:14:27;;;;;;;2.25;1.90;;;;;;;;;;4970958;28;20534;-46
2023/01/06 16:16:53;;;;;;;2.47;1.90;;;;;;;;;;4970860;28;20198;-47
2023/01/06 16:19:20;;;;;;;2.90;2.22;;;;;;;;;;4970986;28;20054;-47
2023/01/06 16:21:50;;;;;;;3.53;2.70;;;;;;;;;;4970316;28;20026;-48
2023/01/06 16:24:27;;;;;;;3.50;2.45;;;;;;;;;;4970703;28;20154;-47
2023/01/06 16:26:55;;;;;;;2.60;2.10;;;;;;;;;;4970717;28;20022;-46
2023/01/06 16:29:27;;;;;;;3.35;2.38;;;;;;;;;;4970659;28;20157;-47
2023/01/06 16:31:53;;;;;;;2.30;2.08;;;;;;;;;;4970665;28;20077;-48
2023/01/06 16:34:22;;;;;;;2.67;2.05;;;;;;;;;;4970663;28;20026;-47
2023/01/06 16:36:49;;;;;;;3.30;2.10;;;;;;;;;;4970198;28;20031;-47
2023/01/06 16:39:15;;;;;;;2.58;2.15;;;;;;;;;;4970453;28;20045;-48
2023/01/06 16:42:01;;;;;;;2.20;2.00;;;;;;;;;;4968257;28;20038;-47
2023/01/06 16:44:33;;;;;;;3.08;2.15;;;;;;;;;;4968124;28;20034;-48
2023/01/06 16:46:59;;;;;;;2.92;2.30;;;;;;;;;;4970719;28;20030;-47
2023/01/06 16:49:25;;;;;;;2.65;2.28;;;;;;;;;;4971728;28;20070;-49
2023/01/06 16:51:53;;;;;;;3.05;2.53;;;;;;;;;;4971566;28;20034;-48
2023/01/06 16:54:19;;;;;;;3.60;2.60;;;;;;;;;;4969105;28;20699;-49
2023/01/06 16:56:46;;;;;;;3.20;2.38;;;;;;;;;;4971508;28;20027;-47
2023/01/06 16:59:13;;;;;;;3.97;2.60;;;;;;;;;;4971499;28;20059;-49
2023/01/06 17:01:39;;;;;;;4.68;3.00;;;;;;;;;;4969712;28;20430;-49
2023/01/06 17:04:09;;;;;;;5.55;3.15;;;;;;;;;;4971335;28;20027;-47
2023/01/06 17:06:36;;;;;;;6.63;3.53;;;;;;;;;;4971447;28;20490;-47
2023/01/06 17:09:02;;;;;;;6.05;3.75;;;;;;;;;;4971567;28;20110;-46
2023/01/06 17:11:33;;;;;;;5.82;3.60;;;;;;;;;;4971559;28;20038;-47
2023/01/06 17:14:00;;;;;;;6.20;3.80;;;;;;;;;;4974725;28;20045;-48
2023/01/06 17:16:34;;;;;;;6.18;3.83;;;;;;;;;;4971736;28;20062;-47
2023/01/06 17:19:01;;;;;;;5.88;3.95;;;;;;;;;;4972587;28;20041;-48
2023/01/06 17:21:35;;;;;;;5.65;3.70;;;;;;;;;;4990000;28;20125;-47
2023/01/06 17:24:13;;;;;;;5.27;3.30;;;;;;;;;;4988186;28;20027;-47
2023/01/06 17:26:39;;;;;;;4.65;2.95;;;;;;;;;;4962605;28;20793;-46
2023/01/06 17:29:13;;;;;;;4.43;3.05;;;;;;;;;;4969660;28;20026;-47
2023/01/06 17:31:39;;;;;;;;;;;;;;;;;;4968193;28;20088;-48
2023/01/06 17:34:10;;;;;;;5.55;3.60;;;;;;;;;;4968866;28;20071;-46
2023/01/06 17:36:39;;;;;;;6.63;3.80;;;;;;;;;;4987729;28;20026;-48
2023/01/06 17:39:20;;;;;;;6.90;3.95;;;;;;;;;;4986032;28;20078;-47
2023/01/06 17:41:46;;;;;;;8.02;3.90;;;;;;;;;;4970483;28;20463;-49
2023/01/06 17:44:14;;;;;;;7.38;4.00;;;;;;;;;;4972545;28;20034;-46
2023/01/06 17:46:41;;;;;;;5.82;3.58;;;;;;;;;;4970500;28;20023;-45
2023/01/06 17:49:19;;;;;;;4.10;2.88;;;;;;;;;;4969413;28;20800;-47
2023/01/06 17:51:46;;;;;;;5.55;3.42;;;;;;;;;;4971101;28;20109;-46
2023/01/06 17:57:01;;;;;;;3.60;2.92;;;;;;;;;;4970817;28;20054;-47
2023/01/06 17:59:27;;;;;;;4.15;3.08;;;;;;;;;;4970383;28;20105;-50
2023/01/06 18:01:53;;;;;;;4.53;3.13;;;;;;;;;;4969975;28;20117;-49
2023/01/06 18:04:19;;;;;;;4.25;3.25;;;;;;;;;;4969425;28;20034;-46
2023/01/06 18:06:51;;;;;;;5.05;3.75;;;;;;;;;;4969148;28;20041;-47
2023/01/06 18:09:23;;;;;;;6.22;3.65;;;;;;;;;;4970170;28;20073;-48
2023/01/06 18:12:04;;;;;;;5.72;3.78;;;;;;;;;;4969955;28;20057;-47
2023/01/06 18:14:37;;;;;;;5.28;3.80;;;;;;;;;;4969581;28;20054;-46
2023/01/06 18:17:22;;;;;;;5.97;4.03;;;;;;;;;;4969576;28;20026;-45
2023/01/06 18:19:48;;;;;;;6.18;3.70;;;;;;;;;;4968365;28;20286;-47
2023/01/06 18:22:18;;;;;;;5.38;4.00;;;;;;;;;;4967991;28;20034;-46
2023/01/06 18:24:45;;;;;;;5.30;3.70;;;;;;;;;;4966883;28;20035;-49
2023/01/06 18:27:24;;;;;;;4.18;3.22;;;;;;;;;;4967523;28;20054;-45
2023/01/06 18:29:51;;;;;;;4.80;3.10;;;;;;;;;;4964654;28;20023;-50
2023/01/06 18:32:20;;;;;;;6.07;3.45;;;;;;;;;;4967411;28;20504;-46
2023/01/06 18:34:47;;;;;;;4.15;2.88;;;;;;;;;;4949197;28;20070;-47
2023/01/06 18:37:13;;;;;;;4.25;3.00;;;;;;;;;;4966883;28;20042;-46
2023/01/06 18:39:46;;;;;;;3.70;3.03;;;;;;;;;;4966285;28;20037;-46
2023/01/06 18:42:12;;;;;;;4.05;3.25;;;;;;;;;;4966405;28;20063;-46
2023/01/06 18:44:39;;;;;;;5.03;3.63;;;;;;;;;;4966010;28;20428;-50
2023/01/06 18:47:12;;;;;;;5.88;3.38;;;;;;;;;;4967089;28;20026;-47
2023/01/06 18:49:38;;;;;;;5.03;3.72;;;;;;;;;;4966758;28;20033;-47
2023/01/06 18:52:25;;;;;;;5.65;3.65;;;;;;;;;;4966013;28;20046;-47
2023/01/06 18:54:54;;;;;;;7.82;4.50;;;;;;;;;;4965813;28;20029;-47
2023/01/06 18:57:27;;;;;;;10.32;5.38;;;;;;;;;;4966927;28;20030;-46
2023/01/06 18:59:53;;;;;;;9.23;5.43;;;;;;;;;;4966132;28;20035;-46
2023/01/06 19:02:33;;;;;;;11.57;5.85;;;;;;;;;;4966234;28;20117;-46
2023/01/06 19:04:59;;;;;;;10.70;5.82;;;;;;;;;;4966169;28;20105;-48
2023/01/06 19:07:29;;;;;;;9.02;5.75;;;;;;;;;;4966370;28;20453;-48
2023/01/06 19:09:56;;;;;;;10.32;5.85;;;;;;;;;;4966399;28;20029;-49
2023/01/06 19:12:25;;;;;;;10.05;5.85;;;;;;;;;;4966141;28;20039;-48
2023/01/06 19:14:51;;;;;;;9.85;5.95;;;;;;;;;;4965894;28;20027;-46
2023/01/06 19:17:38;;;;;;;10.20;6.20;;;;;;;;;;4949066;28;20426;-49
2023/01/06 19:20:13;;;;;;;9.00;5.60;;;;;;;;;;4961700;28;20031;-47
2023/01/06 19:22:40;;;;;;;8.57;5.38;;;;;;;;;;4966558;28;20408;-49
2023/01/06 19:25:07;;;;;;;7.95;5.40;;;;;;;;;;4965929;28;20124;-46
2023/01/06 19:27:48;;;;;;;7.55;4.65;;;;;;;;;;4967188;28;20113;-49
2023/01/06 19:30:33;;;;;;;7.50;4.65;;;;;;;;;;4966572;28;20042;-48
2023/01/06 19:33:22;;;;;;;6.72;4.55;;;;;;;;;;4948565;28;20899;-46
2023/01/06 19:35:48;;;;;;;6.70;4.45;;;;;;;;;;4965212;28;20532;-46
2023/01/06 19:38:28;;;;;;;7.63;4.65;;;;;;;;;;4966855;28;20070;-45
2023/01/06 19:40:56;;;;;;;7.43;4.28;;;;;;;;;;4966065;28;20058;-46
2023/01/06 19:43:26;;;;;;;9.95;5.00;;;;;;;;;;4966180;28;20038;-50
2023/01/06 19:45:52;;;;;;;8.18;5.10;;;;;;;;;;4967899;28;20106;-46
2023/01/06 19:48:22;;;;;;;9.57;5.55;;;;;;;;;;4970232;28;20513;-50
2023/01/06 19:50:48;;;;;;;8.90;5.65;;;;;;;;;;4969680;28;20026;-47
2023/01/06 19:53:35;;;;;;;7.45;4.88;;;;;;;;;;4952156;28;20046;-46
2023/01/06 19:56:13;;;;;;;8.23;5.13;;;;;;;;;;4918439;28;20129;-46
2023/01/06 19:58:38;;;;;;;8.80;5.38;;;;;;;;;;4970101;28;20038;-45
2023/01/06 20:01:11;;;;;;;7.53;5.35;;;;;;;;;;4968481;28;20224;-46
2023/01/06 20:03:41;;;;;;;8.45;5.15;;;;;;;;;;4970022;28;20027;-47
2023/01/06 20:06:07;;;;;;;7.88;5.57;;;;;;;;;;4969747;28;20061;-47
2023/01/06 20:08:33;;;;;;;7.70;5.47;;;;;;;;;;4936902;28;20463;-46
2023/01/06 20:10:59;;;;;;;9.25;5.15;;;;;;;;;;4968960;28;20122;-46
2023/01/06 20:13:26;;;;;;;7.40;5.10;;;;;;;;;;4969190;28;20065;-46